Prague Kbely, Czech Republic

5:09 PM CET on January 30, 2015 (GMT +0100)
Kbely | Change Station
CLOSE
Current Station
Airport
Location: KBELY,
Elevation: 938 ft
Nearby Weather Stations

Elev 938 ft 50.12 °N, 14.54 °E | Updated 9 minutes ago

Mostly Cloudy
Mostly Cloudy
34 °F
Feels Like 25 °F
N
13
Wind Variable Wind from West

Today
High -- | Low -- °F
--% Chance of Precip.
Yesterday
High -- | Low -- °F
Precip. -- in
7:39 AM 4:51 PM
Waxing Gibbous, 83% visible
Pressure 28.85 in
Visibility 6.2 miles
Clouds Scattered Clouds 4200 ft
Mostly Cloudy 13000 ft
Windchill 25 °F
Dew Point 21 °F
Humidity 60%
Rainfall 0.00 in
Snow Depth Not available.
UV 0 out of 12
Pollen Not available.
Air Quality Not available.
Flu Activity Not available.
METAR LKKB 301600Z 26011KT 9999 SCT042 BKN130 01/M06 Q0977 NOSIG

More Conditions Fewer Conditions

Pressure 28.85 in
Visibility 6.2 miles
Clouds Scattered Clouds 4200 ft
Mostly Cloudy 13000 ft
Windchill 25 °F
Dew Point 21 °F
Humidity 60%
Rainfall 0.00 in
Snow Depth Not available.
UV 0 out of 12
Pollen Not available.
Air Quality Not available.
Flu Activity Not available.
METAR LKKB 301600Z 26011KT 9999 SCT042 BKN130 01/M06 Q0977 NOSIG

More Conditions Fewer Conditions

10-Day Weather Forecast

Almanac

Astronomy

Jan. 30, 2015 Rise Set
Actual Time
Civil Twilight
Nautical Twilight
Astronomical Twilight
Moon
Length of Visible Light
Length of Day
Tomorrow will be .
, % of the Moon is Illuminated

Today's Extremes

Country Highs Country Lows

Community

WunderPhotos

Upload Photos

1,791,800 photos uploaded!

WunderBlogs® & News

Nearby

Air Quality

  Air Quality AQ Index Pollutant
Not available.

Snow Depth

Station Depth Elevation

Earthquake Activity

City Distance Mag. Time & Date
Minimum magnitude displayed is 2.5.

Coastal Water Temperatures

Place Temperature

Nearby Weather Stations